CheckWX is a tool to help pilots better visualize weather data.  It is not intended as a substitute for an official pre-flight weather briefing.

01:28:55 UTC

TDPD TAF
Melville Hall Airport
Marigot, Dominica
TAF TDPD 231700Z 2318/2418 12012KT 9999 SCT018

Feb-23@
18:00 UTC

Feb-23 @ 18:00 UTC

Feb-24@
18:00 UTC

Feb-24 @ 18:00 UTC

TAF TDPD 231700Z 2318/2418 12012KT 9999 SCT018
Wind
  • 120° at 12 KTS
Cloud Levels
  • Scattered at 1,800' AGL